Terminal Aerodrome Forecast
Issued by NWS Boise, ID

Home | Current Version | Previous Version | Text Only | Print | Product List | Glossary On
Versions: 1 2 3 4 5 6 7 8 9 10 11 12 13 14 15
000
FTUS45 KBOI 231128
TAFBNO
TAF
KBNO 231128Z 2312/2412 28014KT P6SM BKN100
     FM231800 27012G23KT P6SM SCT100
     FM240100 27007KT P6SM SCT100=

USA.gov is the U.S. government's official web portal to all federal, state and local government web resources and services.